sensor_id;sensor_type;location;lat;lon;timestamp;P1;durP1;ratioP1;P2;durP2;ratioP2
14235;SDS011;7202;50.718;7.072;2023-08-30T00:01:10;5.13;;;4.32;;
14235;SDS011;7202;50.718;7.072;2023-08-30T00:03:39;5.85;;;4.13;;
14235;SDS011;7202;50.718;7.072;2023-08-30T00:06:08;5.35;;;4.03;;
14235;SDS011;7202;50.718;7.072;2023-08-30T00:08:36;4.68;;;4.18;;
14235;SDS011;7202;50.718;7.072;2023-08-30T00:11:06;4.53;;;3.75;;
14235;SDS011;7202;50.718;7.072;2023-08-30T00:13:35;5.72;;;4.40;;
14235;SDS011;7202;50.718;7.072;2023-08-30T00:16:04;5.35;;;3.90;;
14235;SDS011;7202;50.718;7.072;2023-08-30T00:18:32;4.45;;;4.05;;
14235;SDS011;7202;50.718;7.072;2023-08-30T00:21:01;4.80;;;4.40;;
14235;SDS011;7202;50.718;7.072;2023-08-30T00:23:29;4.50;;;4.10;;
14235;SDS011;7202;50.718;7.072;2023-08-30T00:25:58;6.60;;;4.45;;
14235;SDS011;7202;50.718;7.072;2023-08-30T00:28:29;6.43;;;4.38;;
14235;SDS011;7202;50.718;7.072;2023-08-30T00:30:57;4.53;;;4.13;;
14235;SDS011;7202;50.718;7.072;2023-08-30T00:33:26;5.10;;;4.60;;
14235;SDS011;7202;50.718;7.072;2023-08-30T00:35:55;4.45;;;4.05;;
14235;SDS011;7202;50.718;7.072;2023-08-30T00:38:25;4.95;;;4.07;;
14235;SDS011;7202;50.718;7.072;2023-08-30T00:40:55;4.60;;;4.15;;
14235;SDS011;7202;50.718;7.072;2023-08-30T00:43:24;5.38;;;4.43;;
14235;SDS011;7202;50.718;7.072;2023-08-30T00:45:55;5.05;;;4.40;;
14235;SDS011;7202;50.718;7.072;2023-08-30T00:48:24;5.80;;;4.18;;
14235;SDS011;7202;50.718;7.072;2023-08-30T00:50:52;5.60;;;4.25;;
14235;SDS011;7202;50.718;7.072;2023-08-30T00:53:22;5.68;;;4.20;;
14235;SDS011;7202;50.718;7.072;2023-08-30T00:55:51;4.82;;;4.10;;
14235;SDS011;7202;50.718;7.072;2023-08-30T00:58:20;7.90;;;4.32;;
14235;SDS011;7202;50.718;7.072;2023-08-30T01:00:48;4.60;;;4.20;;
14235;SDS011;7202;50.718;7.072;2023-08-30T01:03:19;4.70;;;4.20;;
14235;SDS011;7202;50.718;7.072;2023-08-30T01:05:48;4.88;;;3.63;;
14235;SDS011;7202;50.718;7.072;2023-08-30T01:08:17;6.20;;;4.70;;
14235;SDS011;7202;50.718;7.072;2023-08-30T01:10:47;4.88;;;4.47;;
14235;SDS011;7202;50.718;7.072;2023-08-30T01:13:21;4.78;;;4.38;;
14235;SDS011;7202;50.718;7.072;2023-08-30T01:15:51;5.22;;;4.32;;
14235;SDS011;7202;50.718;7.072;2023-08-30T01:18:24;4.55;;;4.15;;
14235;SDS011;7202;50.718;7.072;2023-08-30T01:20:54;4.50;;;4.10;;
14235;SDS011;7202;50.718;7.072;2023-08-30T01:23:27;4.75;;;4.22;;
14235;SDS011;7202;50.718;7.072;2023-08-30T01:26:04;4.70;;;4.30;;
14235;SDS011;7202;50.718;7.072;2023-08-30T01:28:39;4.65;;;4.25;;
14235;SDS011;7202;50.718;7.072;2023-08-30T01:31:08;5.00;;;4.50;;
14235;SDS011;7202;50.718;7.072;2023-08-30T01:33:38;4.55;;;4.15;;
14235;SDS011;7202;50.718;7.072;2023-08-30T01:36:08;4.82;;;4.43;;
14235;SDS011;7202;50.718;7.072;2023-08-30T01:38:38;5.75;;;4.40;;
14235;SDS011;7202;50.718;7.072;2023-08-30T01:41:07;5.05;;;4.65;;
14235;SDS011;7202;50.718;7.072;2023-08-30T01:43:38;4.90;;;4.40;;
14235;SDS011;7202;50.718;7.072;2023-08-30T01:46:08;6.13;;;4.35;;
14235;SDS011;7202;50.718;7.072;2023-08-30T01:48:38;4.43;;;4.00;;
14235;SDS011;7202;50.718;7.072;2023-08-30T01:51:08;6.68;;;4.22;;
14235;SDS011;7202;50.718;7.072;2023-08-30T01:53:37;4.25;;;3.85;;
14235;SDS011;7202;50.718;7.072;2023-08-30T01:56:07;5.88;;;4.20;;
14235;SDS011;7202;50.718;7.072;2023-08-30T01:58:36;5.28;;;4.35;;
14235;SDS011;7202;50.718;7.072;2023-08-30T02:01:06;5.50;;;3.92;;
14235;SDS011;7202;50.718;7.072;2023-08-30T02:03:35;4.65;;;4.00;;
14235;SDS011;7202;50.718;7.072;2023-08-30T02:06:05;6.00;;;4.57;;
14235;SDS011;7202;50.718;7.072;2023-08-30T02:08:38;5.30;;;4.75;;
14235;SDS011;7202;50.718;7.072;2023-08-30T02:11:11;6.35;;;4.82;;
14235;SDS011;7202;50.718;7.072;2023-08-30T02:13:44;6.28;;;4.10;;
14235;SDS011;7202;50.718;7.072;2023-08-30T02:16:16;4.68;;;4.25;;
14235;SDS011;7202;50.718;7.072;2023-08-30T02:18:46;4.35;;;4.00;;
14235;SDS011;7202;50.718;7.072;2023-08-30T02:21:16;4.93;;;4.25;;
14235;SDS011;7202;50.718;7.072;2023-08-30T02:23:48;4.93;;;4.20;;
14235;SDS011;7202;50.718;7.072;2023-08-30T02:26:17;4.13;;;3.78;;
14235;SDS011;7202;50.718;7.072;2023-08-30T02:28:47;5.68;;;4.40;;
14235;SDS011;7202;50.718;7.072;2023-08-30T02:31:17;8.15;;;4.30;;
14235;SDS011;7202;50.718;7.072;2023-08-30T02:33:46;7.28;;;3.88;;
14235;SDS011;7202;50.718;7.072;2023-08-30T02:36:15;4.53;;;4.13;;
14235;SDS011;7202;50.718;7.072;2023-08-30T02:38:43;5.55;;;4.22;;
14235;SDS011;7202;50.718;7.072;2023-08-30T02:41:14;6.53;;;3.80;;
14235;SDS011;7202;50.718;7.072;2023-08-30T02:43:43;4.38;;;3.97;;
14235;SDS011;7202;50.718;7.072;2023-08-30T02:46:11;4.43;;;3.67;;
14235;SDS011;7202;50.718;7.072;2023-08-30T02:48:41;4.38;;;3.92;;
14235;SDS011;7202;50.718;7.072;2023-08-30T02:51:10;4.70;;;4.10;;
14235;SDS011;7202;50.718;7.072;2023-08-30T02:53:39;4.15;;;3.78;;
14235;SDS011;7202;50.718;7.072;2023-08-30T02:56:07;5.15;;;4.13;;
14235;SDS011;7202;50.718;7.072;2023-08-30T02:58:38;4.40;;;4.00;;
14235;SDS011;7202;50.718;7.072;2023-08-30T03:01:06;4.53;;;4.07;;
14235;SDS011;7202;50.718;7.072;2023-08-30T03:03:35;6.95;;;4.47;;
14235;SDS011;7202;50.718;7.072;2023-08-30T03:06:05;4.47;;;4.07;;
14235;SDS011;7202;50.718;7.072;2023-08-30T03:08:34;4.65;;;4.18;;
14235;SDS011;7202;50.718;7.072;2023-08-30T03:11:09;4.32;;;3.92;;
14235;SDS011;7202;50.718;7.072;2023-08-30T03:13:43;4.50;;;4.10;;
14235;SDS011;7202;50.718;7.072;2023-08-30T03:16:12;4.28;;;3.67;;
14235;SDS011;7202;50.718;7.072;2023-08-30T03:18:42;4.60;;;3.97;;
14235;SDS011;7202;50.718;7.072;2023-08-30T03:21:13;4.97;;;4.47;;
14235;SDS011;7202;50.718;7.072;2023-08-30T03:23:41;4.43;;;4.03;;
14235;SDS011;7202;50.718;7.072;2023-08-30T03:26:10;4.88;;;4.38;;
14235;SDS011;7202;50.718;7.072;2023-08-30T03:28:40;4.63;;;4.22;;
14235;SDS011;7202;50.718;7.072;2023-08-30T03:31:13;5.60;;;4.05;;
14235;SDS011;7202;50.718;7.072;2023-08-30T03:33:44;6.10;;;4.68;;
14235;SDS011;7202;50.718;7.072;2023-08-30T03:36:16;5.07;;;3.90;;
14235;SDS011;7202;50.718;7.072;2023-08-30T03:38:45;6.82;;;4.70;;
14235;SDS011;7202;50.718;7.072;2023-08-30T03:41:14;5.45;;;4.20;;
14235;SDS011;7202;50.718;7.072;2023-08-30T03:43:44;4.82;;;4.32;;
14235;SDS011;7202;50.718;7.072;2023-08-30T03:46:12;5.57;;;4.50;;
14235;SDS011;7202;50.718;7.072;2023-08-30T03:48:41;4.95;;;4.13;;
14235;SDS011;7202;50.718;7.072;2023-08-30T03:51:10;5.03;;;4.50;;
14235;SDS011;7202;50.718;7.072;2023-08-30T03:53:41;6.10;;;4.70;;
14235;SDS011;7202;50.718;7.072;2023-08-30T03:56:09;8.82;;;4.82;;
14235;SDS011;7202;50.718;7.072;2023-08-30T03:58:38;5.82;;;4.57;;
14235;SDS011;7202;50.718;7.072;2023-08-30T04:01:07;6.07;;;4.78;;
14235;SDS011;7202;50.718;7.072;2023-08-30T04:03:36;5.38;;;4.40;;
14235;SDS011;7202;50.718;7.072;2023-08-30T04:06:04;5.95;;;4.32;;
14235;SDS011;7202;50.718;7.072;2023-08-30T04:08:33;6.35;;;4.85;;
14235;SDS011;7202;50.718;7.072;2023-08-30T04:11:03;5.43;;;4.60;;
14235;SDS011;7202;50.718;7.072;2023-08-30T04:13:31;5.55;;;5.05;;
14235;SDS011;7202;50.718;7.072;2023-08-30T04:16:03;5.78;;;4.95;;
14235;SDS011;7202;50.718;7.072;2023-08-30T04:18:31;7.60;;;5.25;;
14235;SDS011;7202;50.718;7.072;2023-08-30T04:21:00;6.07;;;4.68;;
14235;SDS011;7202;50.718;7.072;2023-08-30T04:23:29;8.70;;;5.25;;
14235;SDS011;7202;50.718;7.072;2023-08-30T04:25:58;8.63;;;4.75;;
14235;SDS011;7202;50.718;7.072;2023-08-30T04:28:28;5.50;;;5.00;;
14235;SDS011;7202;50.718;7.072;2023-08-30T04:30:56;5.50;;;5.00;;
14235;SDS011;7202;50.718;7.072;2023-08-30T04:33:25;5.18;;;4.68;;
14235;SDS011;7202;50.718;7.072;2023-08-30T04:35:54;5.78;;;5.00;;
14235;SDS011;7202;50.718;7.072;2023-08-30T04:38:23;6.13;;;5.53;;
14235;SDS011;7202;50.718;7.072;2023-08-30T04:40:56;5.47;;;4.97;;
14235;SDS011;7202;50.718;7.072;2023-08-30T04:43:27;8.05;;;5.05;;
14235;SDS011;7202;50.718;7.072;2023-08-30T04:45:56;5.50;;;4.93;;
14235;SDS011;7202;50.718;7.072;2023-08-30T04:48:25;5.30;;;4.72;;
14235;SDS011;7202;50.718;7.072;2023-08-30T04:51:00;5.65;;;4.88;;
14235;SDS011;7202;50.718;7.072;2023-08-30T04:53:30;8.15;;;5.70;;
14235;SDS011;7202;50.718;7.072;2023-08-30T04:55:58;6.32;;;5.55;;
14235;SDS011;7202;50.718;7.072;2023-08-30T04:58:30;5.80;;;5.05;;
14235;SDS011;7202;50.718;7.072;2023-08-30T05:00:58;7.38;;;5.55;;
14235;SDS011;7202;50.718;7.072;2023-08-30T05:03:27;7.95;;;5.80;;
14235;SDS011;7202;50.718;7.072;2023-08-30T05:05:59;5.97;;;5.38;;
14235;SDS011;7202;50.718;7.072;2023-08-30T05:08:28;7.05;;;5.90;;
14235;SDS011;7202;50.718;7.072;2023-08-30T05:10:56;7.03;;;5.75;;
14235;SDS011;7202;50.718;7.072;2023-08-30T05:13:25;6.70;;;5.43;;
14235;SDS011;7202;50.718;7.072;2023-08-30T05:15:55;6.30;;;5.70;;
14235;SDS011;7202;50.718;7.072;2023-08-30T05:18:24;6.93;;;6.22;;
14235;SDS011;7202;50.718;7.072;2023-08-30T05:20:53;6.50;;;5.82;;
14235;SDS011;7202;50.718;7.072;2023-08-30T05:23:21;8.40;;;6.45;;
14235;SDS011;7202;50.718;7.072;2023-08-30T05:25:50;7.53;;;5.80;;
14235;SDS011;7202;50.718;7.072;2023-08-30T05:28:19;8.00;;;6.13;;
14235;SDS011;7202;50.718;7.072;2023-08-30T05:30:48;7.38;;;5.80;;
14235;SDS011;7202;50.718;7.072;2023-08-30T05:33:36;6.13;;;5.13;;
14235;SDS011;7202;50.718;7.072;2023-08-30T05:36:31;6.93;;;6.10;;
14235;SDS011;7202;50.718;7.072;2023-08-30T05:39:27;6.80;;;5.97;;
14235;SDS011;7202;50.718;7.072;2023-08-30T05:41:57;6.70;;;5.97;;
14235;SDS011;7202;50.718;7.072;2023-08-30T05:44:25;6.28;;;5.68;;
14235;SDS011;7202;50.718;7.072;2023-08-30T05:46:54;7.25;;;5.70;;
14235;SDS011;7202;50.718;7.072;2023-08-30T05:49:24;8.73;;;5.88;;
14235;SDS011;7202;50.718;7.072;2023-08-30T05:51:53;7.82;;;6.10;;
14235;SDS011;7202;50.718;7.072;2023-08-30T05:54:21;6.32;;;5.65;;
14235;SDS011;7202;50.718;7.072;2023-08-30T05:56:50;7.28;;;6.20;;
14235;SDS011;7202;50.718;7.072;2023-08-30T05:59:19;7.97;;;6.55;;
14235;SDS011;7202;50.718;7.072;2023-08-30T06:01:48;9.80;;;6.45;;
14235;SDS011;7202;50.718;7.072;2023-08-30T06:04:17;9.65;;;6.57;;
14235;SDS011;7202;50.718;7.072;2023-08-30T06:06:47;7.30;;;6.15;;
14235;SDS011;7202;50.718;7.072;2023-08-30T06:09:15;7.22;;;5.55;;
14235;SDS011;7202;50.718;7.072;2023-08-30T06:11:45;9.32;;;5.90;;
14235;SDS011;7202;50.718;7.072;2023-08-30T06:14:13;6.65;;;5.88;;
14235;SDS011;7202;50.718;7.072;2023-08-30T06:16:42;8.15;;;7.22;;
14235;SDS011;7202;50.718;7.072;2023-08-30T06:19:11;7.45;;;6.10;;
14235;SDS011;7202;50.718;7.072;2023-08-30T06:21:40;8.23;;;6.25;;
14235;SDS011;7202;50.718;7.072;2023-08-30T06:24:10;6.05;;;5.45;;
14235;SDS011;7202;50.718;7.072;2023-08-30T06:26:39;6.95;;;6.25;;
14235;SDS011;7202;50.718;7.072;2023-08-30T06:29:08;6.38;;;5.78;;
14235;SDS011;7202;50.718;7.072;2023-08-30T06:31:36;5.93;;;5.43;;
14235;SDS011;7202;50.718;7.072;2023-08-30T06:34:06;6.72;;;5.70;;
14235;SDS011;7202;50.718;7.072;2023-08-30T06:36:35;6.13;;;5.20;;
14235;SDS011;7202;50.718;7.072;2023-08-30T06:39:04;6.72;;;5.80;;
14235;SDS011;7202;50.718;7.072;2023-08-30T06:41:34;7.68;;;6.82;;
14235;SDS011;7202;50.718;7.072;2023-08-30T06:44:03;13.35;;;6.85;;
14235;SDS011;7202;50.718;7.072;2023-08-30T06:46:32;6.80;;;5.60;;
14235;SDS011;7202;50.718;7.072;2023-08-30T06:49:01;8.55;;;5.95;;
14235;SDS011;7202;50.718;7.072;2023-08-30T06:51:30;7.00;;;6.20;;
14235;SDS011;7202;50.718;7.072;2023-08-30T06:53:59;8.93;;;6.10;;
14235;SDS011;7202;50.718;7.072;2023-08-30T06:56:27;8.38;;;5.88;;
14235;SDS011;7202;50.718;7.072;2023-08-30T06:58:57;6.93;;;5.47;;
14235;SDS011;7202;50.718;7.072;2023-08-30T07:01:26;9.23;;;5.82;;
14235;SDS011;7202;50.718;7.072;2023-08-30T07:03:54;8.32;;;5.63;;
14235;SDS011;7202;50.718;7.072;2023-08-30T07:06:23;7.40;;;6.15;;
14235;SDS011;7202;50.718;7.072;2023-08-30T07:08:56;8.95;;;5.78;;
14235;SDS011;7202;50.718;7.072;2023-08-30T07:11:25;6.88;;;6.18;;
14235;SDS011;7202;50.718;7.072;2023-08-30T07:14:01;11.15;;;6.05;;
14235;SDS011;7202;50.718;7.072;2023-08-30T07:16:30;11.18;;;6.10;;
14235;SDS011;7202;50.718;7.072;2023-08-30T07:19:05;8.70;;;6.13;;
14235;SDS011;7202;50.718;7.072;2023-08-30T07:21:34;8.40;;;5.90;;
14235;SDS011;7202;50.718;7.072;2023-08-30T07:24:05;7.03;;;5.68;;
14235;SDS011;7202;50.718;7.072;2023-08-30T07:26:35;9.82;;;5.53;;
14235;SDS011;7202;50.718;7.072;2023-08-30T07:29:05;7.03;;;5.40;;
14235;SDS011;7202;50.718;7.072;2023-08-30T07:31:34;6.50;;;4.97;;
14235;SDS011;7202;50.718;7.072;2023-08-30T07:34:03;6.78;;;4.97;;
14235;SDS011;7202;50.718;7.072;2023-08-30T07:36:31;7.00;;;5.20;;
14235;SDS011;7202;50.718;7.072;2023-08-30T07:39:13;6.03;;;5.32;;
14235;SDS011;7202;50.718;7.072;2023-08-30T07:41:42;8.75;;;5.85;;
14235;SDS011;7202;50.718;7.072;2023-08-30T07:44:12;6.75;;;4.57;;
14235;SDS011;7202;50.718;7.072;2023-08-30T07:46:41;4.93;;;4.43;;
14235;SDS011;7202;50.718;7.072;2023-08-30T07:49:09;6.10;;;4.75;;
14235;SDS011;7202;50.718;7.072;2023-08-30T07:51:38;5.75;;;5.00;;
14235;SDS011;7202;50.718;7.072;2023-08-30T07:54:10;5.40;;;4.88;;
14235;SDS011;7202;50.718;7.072;2023-08-30T07:56:48;5.18;;;4.05;;
14235;SDS011;7202;50.718;7.072;2023-08-30T07:59:18;4.50;;;3.83;;
14235;SDS011;7202;50.718;7.072;2023-08-30T08:01:46;6.30;;;4.45;;
14235;SDS011;7202;50.718;7.072;2023-08-30T08:04:15;6.70;;;4.45;;
14235;SDS011;7202;50.718;7.072;2023-08-30T08:06:43;6.15;;;4.50;;
14235;SDS011;7202;50.718;7.072;2023-08-30T08:09:22;5.05;;;3.67;;
14235;SDS011;7202;50.718;7.072;2023-08-30T08:11:51;4.30;;;3.60;;
14235;SDS011;7202;50.718;7.072;2023-08-30T08:14:21;4.43;;;3.47;;
14235;SDS011;7202;50.718;7.072;2023-08-30T08:16:50;5.05;;;3.70;;
14235;SDS011;7202;50.718;7.072;2023-08-30T08:19:19;4.13;;;3.60;;
14235;SDS011;7202;50.718;7.072;2023-08-30T08:21:52;3.70;;;3.20;;
14235;SDS011;7202;50.718;7.072;2023-08-30T08:24:22;6.38;;;4.40;;
14235;SDS011;7202;50.718;7.072;2023-08-30T08:26:50;3.40;;;3.03;;
14235;SDS011;7202;50.718;7.072;2023-08-30T08:29:19;3.67;;;2.92;;
14235;SDS011;7202;50.718;7.072;2023-08-30T08:31:49;7.35;;;3.13;;
14235;SDS011;7202;50.718;7.072;2023-08-30T08:34:18;3.35;;;2.78;;
14235;SDS011;7202;50.718;7.072;2023-08-30T08:36:49;5.78;;;3.03;;
14235;SDS011;7202;50.718;7.072;2023-08-30T08:39:17;4.75;;;3.13;;
14235;SDS011;7202;50.718;7.072;2023-08-30T08:41:46;4.13;;;2.83;;
14235;SDS011;7202;50.718;7.072;2023-08-30T08:44:15;5.70;;;2.70;;
14235;SDS011;7202;50.718;7.072;2023-08-30T08:46:44;3.20;;;2.80;;
14235;SDS011;7202;50.718;7.072;2023-08-30T08:49:16;3.75;;;2.47;;
14235;SDS011;7202;50.718;7.072;2023-08-30T08:51:45;8.35;;;2.80;;
14235;SDS011;7202;50.718;7.072;2023-08-30T08:54:14;5.03;;;2.70;;
14235;SDS011;7202;50.718;7.072;2023-08-30T08:56:43;3.70;;;2.65;;
14235;SDS011;7202;50.718;7.072;2023-08-30T08:59:13;4.95;;;2.70;;
14235;SDS011;7202;50.718;7.072;2023-08-30T09:01:42;3.72;;;2.50;;
14235;SDS011;7202;50.718;7.072;2023-08-30T09:04:11;5.45;;;3.05;;
14235;SDS011;7202;50.718;7.072;2023-08-30T09:06:41;2.67;;;2.35;;
14235;SDS011;7202;50.718;7.072;2023-08-30T09:09:11;3.13;;;2.40;;
14235;SDS011;7202;50.718;7.072;2023-08-30T09:11:39;4.65;;;2.80;;
14235;SDS011;7202;50.718;7.072;2023-08-30T09:14:11;3.63;;;2.25;;
14235;SDS011;7202;50.718;7.072;2023-08-30T09:16:40;2.78;;;2.47;;
14235;SDS011;7202;50.718;7.072;2023-08-30T09:19:08;2.92;;;2.63;;
14235;SDS011;7202;50.718;7.072;2023-08-30T09:21:37;4.03;;;2.70;;
14235;SDS011;7202;50.718;7.072;2023-08-30T09:24:07;4.53;;;2.85;;
14235;SDS011;7202;50.718;7.072;2023-08-30T09:26:36;4.30;;;2.70;;
14235;SDS011;7202;50.718;7.072;2023-08-30T09:29:06;6.93;;;2.67;;
14235;SDS011;7202;50.718;7.072;2023-08-30T09:31:36;3.15;;;2.70;;
14235;SDS011;7202;50.718;7.072;2023-08-30T09:34:07;3.58;;;2.72;;
14235;SDS011;7202;50.718;7.072;2023-08-30T09:36:37;3.60;;;2.60;;
14235;SDS011;7202;50.718;7.072;2023-08-30T09:39:09;4.55;;;2.72;;
14235;SDS011;7202;50.718;7.072;2023-08-30T09:41:40;3.55;;;2.70;;
14235;SDS011;7202;50.718;7.072;2023-08-30T09:44:09;4.78;;;2.60;;
14235;SDS011;7202;50.718;7.072;2023-08-30T09:46:41;3.80;;;2.65;;
14235;SDS011;7202;50.718;7.072;2023-08-30T09:49:18;3.08;;;2.67;;
14235;SDS011;7202;50.718;7.072;2023-08-30T09:51:48;4.18;;;3.00;;
14235;SDS011;7202;50.718;7.072;2023-08-30T09:54:22;5.78;;;2.72;;
14235;SDS011;7202;50.718;7.072;2023-08-30T09:56:54;4.32;;;2.60;;
14235;SDS011;7202;50.718;7.072;2023-08-30T09:59:27;6.03;;;2.95;;
14235;SDS011;7202;50.718;7.072;2023-08-30T10:01:57;3.65;;;2.80;;
14235;SDS011;7202;50.718;7.072;2023-08-30T10:04:27;3.58;;;2.70;;
14235;SDS011;7202;50.718;7.072;2023-08-30T10:06:57;4.60;;;2.47;;
14235;SDS011;7202;50.718;7.072;2023-08-30T10:09:27;3.33;;;2.50;;
14235;SDS011;7202;50.718;7.072;2023-08-30T10:11:58;2.88;;;2.33;;
14235;SDS011;7202;50.718;7.072;2023-08-30T10:14:28;5.63;;;2.90;;
14235;SDS011;7202;50.718;7.072;2023-08-30T10:16:59;4.05;;;2.53;;
14235;SDS011;7202;50.718;7.072;2023-08-30T10:19:32;3.65;;;2.67;;
14235;SDS011;7202;50.718;7.072;2023-08-30T10:22:01;3.10;;;2.60;;
14235;SDS011;7202;50.718;7.072;2023-08-30T10:24:35;2.97;;;2.50;;
14235;SDS011;7202;50.718;7.072;2023-08-30T10:27:28;4.57;;;2.60;;
14235;SDS011;7202;50.718;7.072;2023-08-30T10:29:59;3.17;;;2.50;;
14235;SDS011;7202;50.718;7.072;2023-08-30T10:32:30;5.22;;;2.50;;
14235;SDS011;7202;50.718;7.072;2023-08-30T10:35:06;4.38;;;2.53;;
14235;SDS011;7202;50.718;7.072;2023-08-30T10:37:38;3.47;;;2.88;;
14235;SDS011;7202;50.718;7.072;2023-08-30T10:40:09;5.05;;;2.13;;
14235;SDS011;7202;50.718;7.072;2023-08-30T10:42:38;6.55;;;2.45;;
14235;SDS011;7202;50.718;7.072;2023-08-30T10:45:07;3.85;;;2.20;;
14235;SDS011;7202;50.718;7.072;2023-08-30T10:47:40;2.58;;;2.38;;
14235;SDS011;7202;50.718;7.072;2023-08-30T10:50:10;3.22;;;2.40;;
14235;SDS011;7202;50.718;7.072;2023-08-30T10:52:40;4.43;;;2.20;;
14235;SDS011;7202;50.718;7.072;2023-08-30T10:55:10;3.55;;;2.70;;
14235;SDS011;7202;50.718;7.072;2023-08-30T10:57:41;4.00;;;2.20;;
14235;SDS011;7202;50.718;7.072;2023-08-30T11:00:12;5.05;;;2.10;;
14235;SDS011;7202;50.718;7.072;2023-08-30T11:02:48;2.40;;;1.98;;
14235;SDS011;7202;50.718;7.072;2023-08-30T11:05:18;2.33;;;2.00;;
14235;SDS011;7202;50.718;7.072;2023-08-30T11:07:49;4.90;;;2.00;;
14235;SDS011;7202;50.718;7.072;2023-08-30T11:10:20;2.90;;;2.10;;
14235;SDS011;7202;50.718;7.072;2023-08-30T11:12:49;4.45;;;2.13;;
14235;SDS011;7202;50.718;7.072;2023-08-30T11:15:18;3.15;;;2.20;;
14235;SDS011;7202;50.718;7.072;2023-08-30T11:17:49;2.88;;;2.10;;
14235;SDS011;7202;50.718;7.072;2023-08-30T11:20:18;4.75;;;2.45;;
14235;SDS011;7202;50.718;7.072;2023-08-30T11:22:48;3.03;;;1.75;;
14235;SDS011;7202;50.718;7.072;2023-08-30T11:25:18;3.83;;;2.00;;
14235;SDS011;7202;50.718;7.072;2023-08-30T11:27:48;2.17;;;1.88;;
14235;SDS011;7202;50.718;7.072;2023-08-30T11:30:17;2.13;;;1.65;;
14235;SDS011;7202;50.718;7.072;2023-08-30T11:32:47;2.97;;;1.98;;
14235;SDS011;7202;50.718;7.072;2023-08-30T11:35:17;3.22;;;1.90;;
14235;SDS011;7202;50.718;7.072;2023-08-30T11:37:46;2.38;;;1.90;;
14235;SDS011;7202;50.718;7.072;2023-08-30T11:40:15;1.85;;;1.67;;
14235;SDS011;7202;50.718;7.072;2023-08-30T11:42:44;2.80;;;2.00;;
14235;SDS011;7202;50.718;7.072;2023-08-30T11:45:15;3.20;;;1.95;;
14235;SDS011;7202;50.718;7.072;2023-08-30T11:47:43;3.75;;;2.08;;
14235;SDS011;7202;50.718;7.072;2023-08-30T11:50:12;2.33;;;1.65;;
14235;SDS011;7202;50.718;7.072;2023-08-30T11:52:41;2.78;;;2.00;;
14235;SDS011;7202;50.718;7.072;2023-08-30T11:55:10;2.35;;;1.90;;
14235;SDS011;7202;50.718;7.072;2023-08-30T11:57:39;3.10;;;2.40;;
14235;SDS011;7202;50.718;7.072;2023-08-30T12:00:12;3.65;;;2.10;;
14235;SDS011;7202;50.718;7.072;2023-08-30T12:02:42;2.55;;;1.92;;
14235;SDS011;7202;50.718;7.072;2023-08-30T12:05:12;2.55;;;2.03;;
14235;SDS011;7202;50.718;7.072;2023-08-30T12:07:41;4.10;;;1.98;;
14235;SDS011;7202;50.718;7.072;2023-08-30T12:10:10;3.08;;;2.05;;
14235;SDS011;7202;50.718;7.072;2023-08-30T12:12:44;2.35;;;2.03;;
14235;SDS011;7202;50.718;7.072;2023-08-30T12:15:13;3.72;;;2.00;;
14235;SDS011;7202;50.718;7.072;2023-08-30T12:17:44;3.20;;;2.00;;
14235;SDS011;7202;50.718;7.072;2023-08-30T12:20:15;2.97;;;2.15;;
14235;SDS011;7202;50.718;7.072;2023-08-30T12:22:47;6.75;;;2.20;;
14235;SDS011;7202;50.718;7.072;2023-08-30T12:25:18;3.47;;;2.30;;
14235;SDS011;7202;50.718;7.072;2023-08-30T12:27:47;3.55;;;2.78;;
14235;SDS011;7202;50.718;7.072;2023-08-30T12:30:16;3.05;;;2.50;;
14235;SDS011;7202;50.718;7.072;2023-08-30T12:32:47;2.80;;;2.53;;
14235;SDS011;7202;50.718;7.072;2023-08-30T12:35:16;3.20;;;2.42;;
14235;SDS011;7202;50.718;7.072;2023-08-30T12:37:45;3.15;;;2.72;;
14235;SDS011;7202;50.718;7.072;2023-08-30T12:40:13;3.30;;;2.65;;
14235;SDS011;7202;50.718;7.072;2023-08-30T12:42:42;4.22;;;2.65;;
14235;SDS011;7202;50.718;7.072;2023-08-30T12:45:10;4.63;;;2.70;;
14235;SDS011;7202;50.718;7.072;2023-08-30T12:47:39;3.83;;;2.70;;
14235;SDS011;7202;50.718;7.072;2023-08-30T12:50:10;3.65;;;2.80;;
14235;SDS011;7202;50.718;7.072;2023-08-30T12:52:38;3.83;;;2.70;;
14235;SDS011;7202;50.718;7.072;2023-08-30T12:55:07;3.05;;;2.75;;
14235;SDS011;7202;50.718;7.072;2023-08-30T12:57:37;3.58;;;2.75;;
14235;SDS011;7202;50.718;7.072;2023-08-30T13:00:06;3.72;;;2.72;;
14235;SDS011;7202;50.718;7.072;2023-08-30T13:02:36;3.30;;;2.83;;
14235;SDS011;7202;50.718;7.072;2023-08-30T13:05:05;4.00;;;2.85;;
14235;SDS011;7202;50.718;7.072;2023-08-30T13:07:35;3.60;;;3.00;;
14235;SDS011;7202;50.718;7.072;2023-08-30T13:10:06;4.40;;;2.80;;
14235;SDS011;7202;50.718;7.072;2023-08-30T13:12:35;2.78;;;2.55;;
14235;SDS011;7202;50.718;7.072;2023-08-30T13:15:09;4.78;;;3.15;;
14235;SDS011;7202;50.718;7.072;2023-08-30T13:17:38;2.90;;;2.58;;
14235;SDS011;7202;50.718;7.072;2023-08-30T13:20:07;3.47;;;2.83;;
14235;SDS011;7202;50.718;7.072;2023-08-30T13:22:38;5.63;;;2.95;;
14235;SDS011;7202;50.718;7.072;2023-08-30T13:25:07;3.00;;;2.70;;
14235;SDS011;7202;50.718;7.072;2023-08-30T13:27:36;4.40;;;3.03;;
14235;SDS011;7202;50.718;7.072;2023-08-30T13:30:05;5.38;;;2.97;;
14235;SDS011;7202;50.718;7.072;2023-08-30T13:32:34;5.05;;;3.25;;
14235;SDS011;7202;50.718;7.072;2023-08-30T13:35:03;4.50;;;3.15;;
14235;SDS011;7202;50.718;7.072;2023-08-30T13:37:33;5.25;;;3.40;;
14235;SDS011;7202;50.718;7.072;2023-08-30T13:40:03;3.95;;;2.90;;
14235;SDS011;7202;50.718;7.072;2023-08-30T13:42:33;3.75;;;3.35;;
14235;SDS011;7202;50.718;7.072;2023-08-30T13:45:07;3.65;;;3.22;;
14235;SDS011;7202;50.718;7.072;2023-08-30T13:47:37;6.00;;;3.85;;
14235;SDS011;7202;50.718;7.072;2023-08-30T13:50:06;5.05;;;3.47;;
14235;SDS011;7202;50.718;7.072;2023-08-30T13:52:35;4.63;;;3.20;;
14235;SDS011;7202;50.718;7.072;2023-08-30T13:55:06;6.47;;;3.10;;
14235;SDS011;7202;50.718;7.072;2023-08-30T13:57:35;5.63;;;3.08;;
14235;SDS011;7202;50.718;7.072;2023-08-30T14:00:04;3.13;;;2.80;;
14235;SDS011;7202;50.718;7.072;2023-08-30T14:02:36;5.32;;;3.42;;
14235;SDS011;7202;50.718;7.072;2023-08-30T14:05:05;8.45;;;3.65;;
14235;SDS011;7202;50.718;7.072;2023-08-30T14:07:35;6.43;;;3.47;;
14235;SDS011;7202;50.718;7.072;2023-08-30T14:10:04;4.15;;;2.72;;
14235;SDS011;7202;50.718;7.072;2023-08-30T14:12:35;6.18;;;3.72;;
14235;SDS011;7202;50.718;7.072;2023-08-30T14:15:03;5.65;;;2.42;;
14235;SDS011;7202;50.718;7.072;2023-08-30T14:17:33;5.40;;;2.22;;
14235;SDS011;7202;50.718;7.072;2023-08-30T14:20:01;6.35;;;2.38;;
14235;SDS011;7202;50.718;7.072;2023-08-30T14:22:30;3.35;;;2.08;;
14235;SDS011;7202;50.718;7.072;2023-08-30T14:25:01;5.28;;;2.45;;
14235;SDS011;7202;50.718;7.072;2023-08-30T14:27:39;2.40;;;1.70;;
14235;SDS011;7202;50.718;7.072;2023-08-30T14:30:08;4.22;;;2.00;;
14235;SDS011;7202;50.718;7.072;2023-08-30T14:32:37;7.90;;;2.13;;
14235;SDS011;7202;50.718;7.072;2023-08-30T14:35:06;3.90;;;1.60;;
14235;SDS011;7202;50.718;7.072;2023-08-30T14:37:35;2.85;;;1.70;;
14235;SDS011;7202;50.718;7.072;2023-08-30T14:40:05;1.67;;;1.45;;
14235;SDS011;7202;50.718;7.072;2023-08-30T14:42:34;3.97;;;1.75;;
14235;SDS011;7202;50.718;7.072;2023-08-30T14:45:05;3.05;;;1.77;;
14235;SDS011;7202;50.718;7.072;2023-08-30T14:47:34;5.85;;;2.10;;
14235;SDS011;7202;50.718;7.072;2023-08-30T14:50:03;7.53;;;1.77;;
14235;SDS011;7202;50.718;7.072;2023-08-30T14:52:32;2.38;;;1.92;;
14235;SDS011;7202;50.718;7.072;2023-08-30T14:55:01;3.15;;;2.00;;
14235;SDS011;7202;50.718;7.072;2023-08-30T14:57:30;3.28;;;1.90;;
14235;SDS011;7202;50.718;7.072;2023-08-30T14:59:58;4.40;;;1.85;;
14235;SDS011;7202;50.718;7.072;2023-08-30T15:02:28;3.33;;;2.00;;
14235;SDS011;7202;50.718;7.072;2023-08-30T15:04:58;2.42;;;1.88;;
14235;SDS011;7202;50.718;7.072;2023-08-30T15:07:26;3.38;;;2.30;;
14235;SDS011;7202;50.718;7.072;2023-08-30T15:09:55;2.05;;;1.52;;
14235;SDS011;7202;50.718;7.072;2023-08-30T15:12:23;3.85;;;2.30;;
14235;SDS011;7202;50.718;7.072;2023-08-30T15:14:52;4.80;;;2.45;;
14235;SDS011;7202;50.718;7.072;2023-08-30T15:17:21;2.88;;;2.25;;